Wednesday, June 20, 2018, 5:11 PM EDT
Back to Local

KNYG, Quantico Marine Corps Airfac

Location: MCB Quantico, VA, United States Lat: 38.5
Local Time: 5:11 PM EDT (21:11 GMT) Lon: -77.3
Time Zone: US/Eastern Elev: 13 ft

Show me the last for .
Show Decoded

2018-06-20 15:56 METAR KNYG 201956Z 05005KT 10SM TS FEW040CB SCT065 BKN100 29/21 A2981 RMK AO2
                 TSB51 SLP095 LTG DSNT W AND SW TS VC SW MOV SE T1 T02890211 =
2018-06-20 14:56 METAR KNYG 201856Z 08003KT 10SM SCT065 BKN100 29/20 A2983 RMK AO2 RAE15 SLP101
                 T2 P0000 T02940200 =
2018-06-20 13:56 METAR KNYG 201756Z 00000KT 10SM RA FEW065 BKN100 BKN120 29/21 A2984 RMK AO2
                 RAB52 SLP106 T2 SET P0000 60000 T02890211 10294 20244 58016 =
2018-06-20 12:56 METAR KNYG 201656Z 09003KT 10SM SCT075 BKN110 28/19 A2986 RMK AO2 SLP112
                 T02780194 =
2018-06-20 11:56 METAR KNYG 201556Z 00000KT 10SM FEW075 OVC110 27/18 A2989 RMK AO2 SLP121
                 T02720183 =
2018-06-20 10:56 METAR KNYG 201456Z 00000KT 10SM SCT075 BKN110 27/18 A2989 RMK AO2 SLP122
                 T02670178 58003 =
2018-06-20 09:56 METAR KNYG 201356Z 09004KT 10SM FEW055 BKN100 27/18 A2989 RMK AO2 SLP123
                 T02670178 =
2018-06-20 08:56 METAR KNYG 201256Z 00000KT 10SM SCT055 BKN070 26/17 A2990 RMK AO2 SLP126
                 T02560172 =
2018-06-20 07:56 METAR KNYG 201156Z 36003KT 10SM SCT049 BKN075 25/18 A2990 RMK AO2 SLP125 70035
                 T02500183 10250 20239 51009 =
2018-06-20 06:56 METAR KNYG 201056Z AUTO 01004KT 10SM OVC070 24/19 A2989 RMK AO2 SLP122 T02440189
                 =
2018-06-20 05:56 METAR KNYG 200956Z AUTO 36004KT 10SM OVC070 24/20 A2988 RMK AO2 SLP120 T02390200
                 =
2018-06-20 04:56 METAR KNYG 200856Z AUTO 36003KT 10SM OVC070 24/21 A2987 RMK AO2 SLP116 T02390206
                 58000 =
2018-06-20 03:56 METAR KNYG 200756Z AUTO 33004KT 10SM OVC055 24/22 A2988 RMK AO2 SLP117 T02440217
                 =
2018-06-20 02:56 METAR KNYG 200656Z AUTO 00000KT 10SM OVC060 24/23 A2987 RMK AO2 SLP115 T02390233
                 =
2018-06-20 01:56 METAR KNYG 200556Z AUTO 29003KT 10SM CLR 24/23 A2987 RMK AO2 SLP116 T02390233
                 10267 20239 58005 =
2018-06-20 00:56 METAR KNYG 200456Z AUTO 31005KT 10SM CLR 24/23 A2988 RMK AO2 SLP119 T02390233
                 403670239 =
2018-06-19 23:56 METAR KNYG 200356Z AUTO 31007KT 10SM FEW065 24/24 A2988 RMK AO2 SLP121 T02440239
                 =
2018-06-19 22:56 METAR KNYG 200256Z AUTO 32006KT 10SM CLR 24/24 A2989 RMK AO2 SLP121 T02440239
                 50006 =
2018-06-19 21:56 METAR KNYG 200156Z AUTO 00000KT 10SM CLR 25/24 A2989 RMK AO2 SLP123 T02500239 =
2018-06-19 20:56 METAR KNYG 200056Z AUTO 32006KT 10SM BKN070 26/24 A2988 RMK AO2 SLP118 T02560244
                 =
2018-06-19 19:56 METAR KNYG 192356Z AUTO 00000KT 10SM CLR 26/24 A2987 RMK AO2 SLP115 60035
                 T02610244 10367 20244 53014 =
2018-06-19 18:56 METAR KNYG 192256Z AUTO 36007KT 10SM FEW031 FEW100 27/24 A2985 RMK AO2 RAE44
                 SLP108 P0000 T02670244 =
2018-06-19 17:56 METAR KNYG 192156Z AUTO 35004KT 10SM -RA FEW070 SCT095 27/26 A2984 RMK AO2
                 RAE11B56 SLP104 P0000 T02670256 =

Support USWX by starting your Amazon purchase here.